Terminal Aerodrome Forecast
Issued by NWS

Home | Current Version | Previous Version | Text Only | Print | Product List | Glossary On
Versions: 1 2 3 4 5 6 7 8 9 10 11 12 13
652
FTUS44 KLIX 241720
TAFMCB
TAF
KMCB 241720Z 2418/2518 16005KT P6SM SKC
     FM251000 20005KT 2SM BR BKN030
     FM251200 20005KT 1SM BR BKN003
     FM251500 22007KT P6SM BKN008
     FM251600 22007KT P6SM BKN015=

USA.gov is the U.S. government's official web portal to all federal, state and local government web resources and services.